createdAt,value
2023-02-27T00:00:19.266Z,2.45
2023-02-27T00:02:47.994Z,2.42
2023-02-27T00:05:15.846Z,2.40
2023-02-27T00:07:42.939Z,2.40
2023-02-27T00:10:14.402Z,2.42
2023-02-27T00:12:41.779Z,2.43
2023-02-27T00:15:10.295Z,2.47
2023-02-27T00:17:38.086Z,2.47
2023-02-27T00:20:07.706Z,2.44
2023-02-27T00:22:34.615Z,2.45
2023-02-27T00:25:01.558Z,2.43
2023-02-27T00:27:28.827Z,2.44
2023-02-27T00:29:56.037Z,2.44
2023-02-27T00:32:23.052Z,2.43
2023-02-27T00:34:50.124Z,2.46
2023-02-27T00:37:18.138Z,2.40
2023-02-27T00:39:45.045Z,2.40
2023-02-27T00:42:12.014Z,2.45
2023-02-27T00:44:39.274Z,2.49
2023-02-27T00:47:07.207Z,2.47
2023-02-27T00:49:34.253Z,2.44
2023-02-27T00:52:01.434Z,2.45
2023-02-27T00:54:28.562Z,2.47
2023-02-27T00:56:55.471Z,2.44
2023-02-27T00:59:22.671Z,2.46
2023-02-27T01:01:49.661Z,2.32
2023-02-27T01:04:16.585Z,2.44
2023-02-27T01:06:43.626Z,2.39
2023-02-27T01:09:10.586Z,2.43
2023-02-27T01:11:37.848Z,2.42
2023-02-27T01:14:05.031Z,2.38
2023-02-27T01:16:32.609Z,2.39
2023-02-27T01:18:59.951Z,2.38
2023-02-27T01:21:27.219Z,2.38
2023-02-27T01:23:54.296Z,2.45
2023-02-27T01:26:21.306Z,2.35
2023-02-27T01:28:48.386Z,2.32
2023-02-27T01:31:15.950Z,2.30
2023-02-27T01:33:42.953Z,2.39
2023-02-27T01:36:10.628Z,2.31
2023-02-27T01:38:37.583Z,2.24
2023-02-27T01:41:07.412Z,2.31
2023-02-27T01:43:34.914Z,2.27
2023-02-27T01:46:01.917Z,2.29
2023-02-27T01:48:35.829Z,2.27
2023-02-27T01:51:08.986Z,2.20
2023-02-27T01:53:38.867Z,2.31
2023-02-27T01:56:18.768Z,2.35
2023-02-27T01:58:48.107Z,2.34
2023-02-27T02:01:16.473Z,2.30
2023-02-27T02:03:52.725Z,2.24
2023-02-27T02:06:21.846Z,2.23
2023-02-27T02:08:51.176Z,2.12
2023-02-27T02:11:21.131Z,2.17
2023-02-27T02:13:51.396Z,2.21
2023-02-27T02:16:24.286Z,1.90
2023-02-27T02:19:20.575Z,2.02
2023-02-27T02:22:20.707Z,2.15
2023-02-27T02:25:25.186Z,2.16
2023-02-27T02:28:16.266Z,2.15
2023-02-27T02:31:11.074Z,2.03
2023-02-27T02:34:03.158Z,2.01
2023-02-27T02:37:08.107Z,2.04
2023-02-27T02:39:43.057Z,2.01
2023-02-27T02:42:38.750Z,1.97
2023-02-27T02:45:23.109Z,1.95
2023-02-27T02:48:01.967Z,1.95
2023-02-27T02:50:53.402Z,1.94
2023-02-27T02:53:51.297Z,1.97
2023-02-27T02:56:24.168Z,1.89
2023-02-27T02:59:08.863Z,1.80
2023-02-27T03:02:01.148Z,1.75
2023-02-27T03:04:51.987Z,1.78
2023-02-27T03:07:32.720Z,1.75
2023-02-27T03:10:09.899Z,1.72
2023-02-27T03:12:41.499Z,1.67
2023-02-27T03:15:41.419Z,1.67
2023-02-27T03:18:19.007Z,1.66
2023-02-27T03:20:51.809Z,1.58
2023-02-27T03:23:38.115Z,1.59
2023-02-27T03:26:06.737Z,1.57
2023-02-27T03:28:37.344Z,1.49
2023-02-27T03:31:43.139Z,1.61
2023-02-27T03:34:33.726Z,1.58
2023-02-27T03:37:21.814Z,1.52
2023-02-27T03:40:00.875Z,1.55
2023-02-27T03:43:07.945Z,1.58
2023-02-27T03:45:59.512Z,1.59
2023-02-27T03:48:26.692Z,1.61
2023-02-27T03:50:55.571Z,1.59
2023-02-27T03:53:33.396Z,1.62
2023-02-27T03:56:03.131Z,1.61
2023-02-27T03:58:30.466Z,1.63
2023-02-27T04:00:57.737Z,1.61
2023-02-27T04:03:25.241Z,1.63
2023-02-27T04:05:52.844Z,1.62
2023-02-27T04:08:40.368Z,1.62
2023-02-27T04:11:16.051Z,1.62
2023-02-27T04:13:48.861Z,1.61
2023-02-27T04:16:35.181Z,1.56
2023-02-27T04:19:41.114Z,1.54
2023-02-27T04:22:13.815Z,1.51
2023-02-27T04:25:07.353Z,1.51
2023-02-27T04:27:40.406Z,1.47
2023-02-27T04:30:36.358Z,1.46
2023-02-27T04:33:13.784Z,1.44
2023-02-27T04:36:03.878Z,1.42
2023-02-27T04:39:03.240Z,1.41
2023-02-27T04:42:03.529Z,1.35
2023-02-27T04:44:33.614Z,1.32
2023-02-27T04:47:03.510Z,1.17
2023-02-27T04:49:53.510Z,1.18
2023-02-27T04:52:35.030Z,1.24
2023-02-27T04:55:29.611Z,1.29
2023-02-27T04:58:09.142Z,1.28
2023-02-27T05:00:40.014Z,1.32
2023-02-27T05:03:33.240Z,1.32
2023-02-27T05:06:02.612Z,1.35
2023-02-27T05:08:32.674Z,1.36
2023-02-27T05:11:31.487Z,1.37
2023-02-27T05:14:30.541Z,1.38
2023-02-27T05:17:09.727Z,1.38
2023-02-27T05:19:41.184Z,1.40
2023-02-27T05:22:22.864Z,1.41
2023-02-27T05:24:53.111Z,1.43
2023-02-27T05:27:20.310Z,1.44
2023-02-27T05:29:52.555Z,1.46
2023-02-27T05:32:28.678Z,1.43
2023-02-27T05:35:18.670Z,1.41
2023-02-27T05:38:12.581Z,1.36
2023-02-27T05:40:52.027Z,1.37
2023-02-27T05:43:28.700Z,1.35
2023-02-27T05:46:01.738Z,1.36
2023-02-27T05:48:36.738Z,1.39
2023-02-27T05:51:07.057Z,1.41
2023-02-27T05:53:40.266Z,1.32
2023-02-27T05:56:09.424Z,1.42
2023-02-27T05:58:50.742Z,1.38
2023-02-27T06:01:18.205Z,1.41
2023-02-27T06:03:45.547Z,1.41
2023-02-27T06:06:16.704Z,1.44
2023-02-27T06:08:45.383Z,1.46
2023-02-27T06:11:13.670Z,1.47
2023-02-27T06:13:42.108Z,1.46
2023-02-27T06:16:14.168Z,1.45
2023-02-27T06:18:41.384Z,1.54
2023-02-27T06:21:13.585Z,1.57
2023-02-27T06:23:40.865Z,1.55
2023-02-27T06:26:08.113Z,1.63
2023-02-27T06:28:35.349Z,1.70
2023-02-27T06:31:03.459Z,1.74
2023-02-27T06:33:30.663Z,1.76
2023-02-27T06:35:58.100Z,1.74
2023-02-27T06:38:25.595Z,1.80
2023-02-27T06:40:52.863Z,1.81
2023-02-27T06:43:23.066Z,1.84
2023-02-27T06:45:53.511Z,1.84
2023-02-27T06:48:20.904Z,1.86
2023-02-27T06:50:56.582Z,1.92
2023-02-27T06:53:24.813Z,1.94
2023-02-27T06:55:52.026Z,2.02
2023-02-27T06:58:19.618Z,2.02
2023-02-27T07:00:46.863Z,2.01
2023-02-27T07:03:15.136Z,2.00
2023-02-27T07:05:42.457Z,2.02
2023-02-27T07:08:10.265Z,2.09
2023-02-27T07:10:37.817Z,2.13
2023-02-27T07:13:05.057Z,2.22
2023-02-27T07:15:32.257Z,2.30
2023-02-27T07:17:59.461Z,2.33
2023-02-27T07:20:26.668Z,2.39
2023-02-27T07:22:53.857Z,2.50
2023-02-27T07:25:21.099Z,2.48
2023-02-27T07:27:50.068Z,2.53
2023-02-27T07:30:18.697Z,2.55
2023-02-27T07:32:46.576Z,2.66
2023-02-27T07:35:13.938Z,2.79
2023-02-27T07:37:41.179Z,2.76
2023-02-27T07:40:09.418Z,2.74
2023-02-27T07:42:36.564Z,2.84
2023-02-27T07:45:04.265Z,2.94
2023-02-27T07:47:31.985Z,2.91
2023-02-27T07:49:59.185Z,2.95
2023-02-27T07:52:26.581Z,3.01
2023-02-27T07:54:53.921Z,3.03
2023-02-27T07:57:21.270Z,3.11
2023-02-27T07:59:48.783Z,3.07
2023-02-27T08:02:16.110Z,3.16
2023-02-27T08:04:43.361Z,3.18
2023-02-27T08:07:10.662Z,3.23
2023-02-27T08:09:37.892Z,3.31
2023-02-27T08:12:05.301Z,3.43
2023-02-27T08:14:32.548Z,3.45
2023-02-27T08:17:00.900Z,3.64
2023-02-27T08:19:28.186Z,3.76
2023-02-27T08:21:55.743Z,3.80
2023-02-27T08:24:23.104Z,3.92
2023-02-27T08:26:50.312Z,4.08
2023-02-27T08:29:17.783Z,4.07
2023-02-27T08:31:45.394Z,4.17
2023-02-27T08:34:14.073Z,4.34
2023-02-27T08:36:41.578Z,4.35
2023-02-27T08:39:09.846Z,4.43
2023-02-27T08:41:37.040Z,4.41
2023-02-27T08:44:04.833Z,4.55
2023-02-27T08:46:32.058Z,4.65
2023-02-27T08:48:59.418Z,4.85
2023-02-27T08:51:27.024Z,5.01
2023-02-27T08:53:59.205Z,5.04
2023-02-27T08:56:28.214Z,5.24
2023-02-27T08:58:56.305Z,5.35
2023-02-27T09:01:24.076Z,5.32
2023-02-27T09:03:51.362Z,5.65
2023-02-27T09:06:18.577Z,5.63
2023-02-27T09:08:45.820Z,5.80
2023-02-27T09:11:13.099Z,5.92
2023-02-27T09:13:40.219Z,5.98
2023-02-27T09:16:07.617Z,5.98
2023-02-27T09:18:34.905Z,6.16
2023-02-27T09:21:02.139Z,6.08
2023-02-27T09:23:29.338Z,6.18
2023-02-27T09:25:56.544Z,6.45
2023-02-27T09:28:23.743Z,6.54
2023-02-27T09:30:51.099Z,6.54
2023-02-27T09:33:18.299Z,6.84
2023-02-27T09:35:45.690Z,6.95
2023-02-27T09:38:13.978Z,7.18
2023-02-27T09:40:42.117Z,7.22
2023-02-27T09:43:19.096Z,7.34
2023-02-27T09:45:50.323Z,7.36
2023-02-27T09:48:20.500Z,7.27
2023-02-27T09:50:52.996Z,7.28
2023-02-27T09:53:40.400Z,7.38
2023-02-27T09:56:22.832Z,7.17
2023-02-27T09:59:14.620Z,7.42
2023-02-27T10:01:51.383Z,7.54
2023-02-27T10:04:18.785Z,7.54
2023-02-27T10:07:19.698Z,7.42
2023-02-27T10:09:56.594Z,7.41
2023-02-27T10:12:42.220Z,7.51
2023-02-27T10:15:38.501Z,7.73
2023-02-27T10:18:26.071Z,7.74
2023-02-27T10:20:59.142Z,7.90
2023-02-27T10:23:58.663Z,7.88
2023-02-27T10:26:30.630Z,7.91
2023-02-27T10:29:03.021Z,7.83
2023-02-27T10:31:33.886Z,7.65
2023-02-27T10:34:01.625Z,7.97
2023-02-27T10:36:33.998Z,7.69
2023-02-27T10:39:08.157Z,7.79
2023-02-27T10:41:37.105Z,7.78
2023-02-27T10:44:05.276Z,7.77
2023-02-27T10:46:34.912Z,7.60
2023-02-27T10:49:05.826Z,7.53
2023-02-27T10:51:38.353Z,7.57
2023-02-27T10:54:26.686Z,7.45
2023-02-27T10:57:03.378Z,7.52
2023-02-27T10:59:35.746Z,7.48
2023-02-27T11:02:25.426Z,7.38
2023-02-27T11:04:59.143Z,7.37
2023-02-27T11:07:44.857Z,7.50
2023-02-27T11:10:14.740Z,7.48
2023-02-27T11:12:56.615Z,7.67
2023-02-27T11:15:26.420Z,7.80
2023-02-27T11:17:55.304Z,7.82
2023-02-27T11:20:36.437Z,7.77
2023-02-27T11:23:20.069Z,7.72
2023-02-27T11:25:47.823Z,7.64
2023-02-27T11:28:20.140Z,7.57
2023-02-27T11:31:01.346Z,7.51
2023-02-27T11:33:32.006Z,7.38
2023-02-27T11:35:59.814Z,7.30
2023-02-27T11:38:29.742Z,7.27
2023-02-27T11:41:05.981Z,7.22
2023-02-27T11:43:47.187Z,7.21
2023-02-27T11:46:43.287Z,7.26
2023-02-27T11:49:25.022Z,7.24
2023-02-27T11:52:12.223Z,7.23
2023-02-27T11:55:01.940Z,7.17
2023-02-27T11:57:39.622Z,7.18
2023-02-27T12:00:33.501Z,7.27
2023-02-27T12:13:35.343Z,7.37
2023-02-27T12:16:32.740Z,7.58
2023-02-27T12:19:00.263Z,7.63
2023-02-27T12:21:32.425Z,7.91
2023-02-27T12:24:05.783Z,8.51
2023-02-27T12:26:37.744Z,8.65
2023-02-27T12:29:24.945Z,8.99
2023-02-27T12:31:54.646Z,9.11
2023-02-27T12:34:34.580Z,9.23
2023-02-27T12:37:11.674Z,9.29
2023-02-27T12:39:40.697Z,9.24
2023-02-27T12:42:23.027Z,9.06
2023-02-27T12:45:00.031Z,9.11
2023-02-27T12:47:37.621Z,9.15
2023-02-27T12:50:15.872Z,9.14
2023-02-27T12:52:43.017Z,8.99
2023-02-27T12:55:21.791Z,9.10
2023-02-27T12:58:24.583Z,8.97
2023-02-27T13:00:54.588Z,8.92
2023-02-27T13:03:28.697Z,8.95
2023-02-27T13:06:07.827Z,8.95
2023-02-27T13:08:53.181Z,8.99
2023-02-27T13:11:32.150Z,9.13
2023-02-27T13:14:07.701Z,9.26
2023-02-27T13:16:43.588Z,9.35
2023-02-27T13:19:13.748Z,9.28
2023-02-27T13:21:51.906Z,9.10
2023-02-27T13:24:27.095Z,8.94
2023-02-27T13:27:48.587Z,8.85
2023-02-27T13:30:26.985Z,8.69
2023-02-27T13:33:51.107Z,8.57
2023-02-27T13:36:18.270Z,8.35
2023-02-27T13:38:50.753Z,8.31
2023-02-27T13:41:20.818Z,8.23
2023-02-27T13:43:52.376Z,8.19
2023-02-27T13:46:34.593Z,8.15
2023-02-27T13:49:04.785Z,8.24
2023-02-27T13:51:47.074Z,8.45
2023-02-27T13:54:14.354Z,8.71
2023-02-27T13:56:49.463Z,8.97
2023-02-27T13:59:21.534Z,9.56
2023-02-27T14:01:55.959Z,10.91
2023-02-27T14:04:26.589Z,11.48
2023-02-27T14:07:21.820Z,11.70
2023-02-27T14:09:53.200Z,11.62
2023-02-27T14:12:45.769Z,11.27
2023-02-27T14:15:25.380Z,10.74
2023-02-27T14:18:11.482Z,10.66
2023-02-27T14:20:41.353Z,11.11
2023-02-27T14:23:17.531Z,11.47
2023-02-27T14:25:54.296Z,11.31
2023-02-27T14:28:32.783Z,11.14
2023-02-27T14:31:04.490Z,10.81
2023-02-27T14:33:46.540Z,10.36
2023-02-27T14:36:19.225Z,9.98
2023-02-27T14:38:47.618Z,9.50
2023-02-27T14:41:33.417Z,9.01
2023-02-27T14:44:00.981Z,8.73
2023-02-27T14:46:31.225Z,8.49
2023-02-27T14:49:01.020Z,8.37
2023-02-27T14:51:34.901Z,8.20
2023-02-27T14:54:14.306Z,7.99
2023-02-27T14:56:53.946Z,7.92
2023-02-27T14:59:21.190Z,7.68
2023-02-27T15:01:48.464Z,7.56
2023-02-27T15:04:20.760Z,7.38
2023-02-27T15:06:50.665Z,7.24
2023-02-27T15:09:45.026Z,7.07
2023-02-27T15:12:20.830Z,6.93
2023-02-27T15:14:52.438Z,6.72
2023-02-27T15:17:25.712Z,6.50
2023-02-27T15:19:58.828Z,6.33
2023-02-27T15:22:38.887Z,6.20
2023-02-27T15:25:08.456Z,6.08
2023-02-27T15:27:37.823Z,5.93
2023-02-27T15:30:05.766Z,5.77
2023-02-27T15:32:43.323Z,5.69
2023-02-27T15:35:19.280Z,5.66
2023-02-27T15:37:53.553Z,5.56
2023-02-27T15:40:24.664Z,5.51
2023-02-27T15:42:53.628Z,5.44
2023-02-27T15:45:25.024Z,5.47
2023-02-27T15:47:52.465Z,5.40
2023-02-27T15:50:26.639Z,5.39
2023-02-27T15:53:00.713Z,5.31
2023-02-27T15:55:55.950Z,5.24
2023-02-27T15:58:30.610Z,5.20
2023-02-27T16:01:01.982Z,5.15
2023-02-27T16:03:50.822Z,5.04
2023-02-27T16:06:27.985Z,4.99
2023-02-27T16:08:57.979Z,4.94
2023-02-27T16:11:31.069Z,4.87
2023-02-27T16:13:59.019Z,4.79
2023-02-27T16:16:36.327Z,4.75
2023-02-27T16:19:24.249Z,4.60
2023-02-27T16:22:12.340Z,4.57
2023-02-27T16:24:39.347Z,4.51
2023-02-27T16:27:07.141Z,4.43
2023-02-27T16:29:44.550Z,4.38
2023-02-27T16:32:29.812Z,4.29
2023-02-27T16:35:15.424Z,4.16
2023-02-27T16:37:43.786Z,4.07
2023-02-27T16:40:16.835Z,3.98
2023-02-27T16:42:44.826Z,3.98
2023-02-27T16:45:21.745Z,3.92
2023-02-27T16:47:50.803Z,3.88
2023-02-27T16:50:39.769Z,3.82
2023-02-27T16:53:08.120Z,3.71
2023-02-27T16:55:38.698Z,3.70
2023-02-27T16:58:06.717Z,3.66
2023-02-27T17:00:34.512Z,3.60
2023-02-27T17:03:01.697Z,3.58
2023-02-27T17:05:28.988Z,3.52
2023-02-27T17:07:55.948Z,3.54
2023-02-27T17:10:25.782Z,3.46
2023-02-27T17:12:53.480Z,3.43
2023-02-27T17:15:21.356Z,3.42
2023-02-27T17:17:48.586Z,3.39
2023-02-27T17:20:15.845Z,3.35
2023-02-27T17:22:44.995Z,3.25
2023-02-27T17:25:13.863Z,3.29
2023-02-27T17:27:43.784Z,3.34
2023-02-27T17:30:11.997Z,3.31
2023-02-27T17:32:39.237Z,3.29
2023-02-27T17:35:06.829Z,3.25
2023-02-27T17:37:34.027Z,3.24
2023-02-27T17:40:04.729Z,3.20
2023-02-27T17:42:32.908Z,3.17
2023-02-27T17:45:01.516Z,3.14
2023-02-27T17:47:28.777Z,3.13
2023-02-27T17:49:55.909Z,3.07
2023-02-27T17:52:23.388Z,3.06
2023-02-27T17:54:50.752Z,3.05
2023-02-27T17:57:17.837Z,3.04
2023-02-27T17:59:44.986Z,3.05
2023-02-27T18:02:15.591Z,3.05
2023-02-27T18:04:43.225Z,3.04
2023-02-27T18:07:10.477Z,3.01
2023-02-27T18:09:37.715Z,3.10
2023-02-27T18:12:05.267Z,3.11
2023-02-27T18:14:32.492Z,3.12
2023-02-27T18:16:59.983Z,3.09
2023-02-27T18:19:27.259Z,3.11
2023-02-27T18:21:54.429Z,3.04
2023-02-27T18:24:21.875Z,3.10
2023-02-27T18:26:49.574Z,3.16
2023-02-27T18:29:18.108Z,3.18
2023-02-27T18:31:50.411Z,3.19
2023-02-27T18:34:17.626Z,3.16
2023-02-27T18:36:44.785Z,3.22
2023-02-27T18:39:11.980Z,3.24
2023-02-27T18:41:39.628Z,3.30
2023-02-27T18:44:08.138Z,3.33
2023-02-27T18:46:35.735Z,3.38
2023-02-27T18:49:03.100Z,3.41
2023-02-27T18:51:30.311Z,3.44
2023-02-27T18:53:59.942Z,3.47
2023-02-27T18:56:30.804Z,3.43
2023-02-27T18:59:02.243Z,3.50
2023-02-27T19:01:33.149Z,3.47
2023-02-27T19:04:05.037Z,3.46
2023-02-27T19:06:34.662Z,3.48
2023-02-27T19:09:04.031Z,3.51
2023-02-27T19:11:34.979Z,3.52
2023-02-27T19:14:04.662Z,3.54
2023-02-27T19:16:32.717Z,3.53
2023-02-27T19:19:01.708Z,3.50
2023-02-27T19:21:29.563Z,3.55
2023-02-27T19:23:57.202Z,3.53
2023-02-27T19:26:25.221Z,3.55
2023-02-27T19:28:54.279Z,3.57
2023-02-27T19:31:23.893Z,3.58
2023-02-27T19:33:51.619Z,3.60
2023-02-27T19:36:23.800Z,3.57
2023-02-27T19:38:52.808Z,3.59
2023-02-27T19:41:20.939Z,3.62
2023-02-27T19:43:48.982Z,3.58
2023-02-27T19:46:20.188Z,3.51
2023-02-27T19:48:48.302Z,3.53
2023-02-27T19:51:16.750Z,3.52
2023-02-27T19:53:46.350Z,3.51
2023-02-27T19:56:15.850Z,3.44
2023-02-27T19:58:43.156Z,3.48
2023-02-27T20:01:11.048Z,3.46
2023-02-27T20:03:43.177Z,3.46
2023-02-27T20:06:24.063Z,3.48
2023-02-27T20:08:52.059Z,3.46
2023-02-27T20:11:20.988Z,3.51
2023-02-27T20:13:49.420Z,3.51
2023-02-27T20:16:20.091Z,3.49
2023-02-27T20:18:48.100Z,3.48
2023-02-27T20:21:18.301Z,3.47
2023-02-27T20:23:46.921Z,3.48
2023-02-27T20:26:14.181Z,3.49
2023-02-27T20:28:42.227Z,3.46
2023-02-27T20:31:10.931Z,3.48
2023-02-27T20:33:38.269Z,3.47
2023-02-27T20:36:06.459Z,3.45
2023-02-27T20:38:34.431Z,3.44
2023-02-27T20:41:01.593Z,3.40
2023-02-27T20:43:29.660Z,3.37
2023-02-27T20:45:57.184Z,3.38
2023-02-27T20:48:24.540Z,3.37
2023-02-27T20:50:51.564Z,3.32
2023-02-27T20:53:18.784Z,3.29
2023-02-27T20:55:49.752Z,3.22
2023-02-27T20:58:17.029Z,3.20
2023-02-27T21:00:44.299Z,3.17
2023-02-27T21:03:11.427Z,3.16
2023-02-27T21:05:38.664Z,3.14
2023-02-27T21:08:05.795Z,3.10
2023-02-27T21:10:33.424Z,3.10
2023-02-27T21:13:00.626Z,3.14
2023-02-27T21:15:27.996Z,3.14
2023-02-27T21:17:55.192Z,3.16
2023-02-27T21:20:22.544Z,3.15
2023-02-27T21:22:49.862Z,3.14
2023-02-27T21:25:17.021Z,3.18
2023-02-27T21:27:44.229Z,3.20
2023-02-27T21:30:12.424Z,3.22
2023-02-27T21:32:39.581Z,3.24
2023-02-27T21:35:07.383Z,3.23
2023-02-27T21:37:34.864Z,3.25
2023-02-27T21:40:04.520Z,3.26
2023-02-27T21:42:32.047Z,3.26
2023-02-27T21:44:59.305Z,3.25
2023-02-27T21:47:26.620Z,3.29
2023-02-27T21:49:53.909Z,3.29
2023-02-27T21:52:21.141Z,3.31
2023-02-27T21:54:48.500Z,3.31
2023-02-27T21:57:15.700Z,3.29
2023-02-27T21:59:43.036Z,3.29
2023-02-27T22:02:13.978Z,3.28
2023-02-27T22:04:41.219Z,3.27
2023-02-27T22:07:10.529Z,3.26
2023-02-27T22:09:38.780Z,3.26
2023-02-27T22:12:06.076Z,3.25
2023-02-27T22:14:33.238Z,3.25
2023-02-27T22:17:00.545Z,3.27
2023-02-27T22:19:27.703Z,3.26
2023-02-27T22:21:54.822Z,3.26
2023-02-27T22:24:22.060Z,3.26
2023-02-27T22:26:50.552Z,3.25
2023-02-27T22:29:18.308Z,3.24
2023-02-27T22:31:46.178Z,3.21
2023-02-27T22:34:18.781Z,3.18
2023-02-27T22:36:48.950Z,3.15
2023-02-27T22:39:16.153Z,3.13
2023-02-27T22:41:43.540Z,3.08
2023-02-27T22:44:13.984Z,3.05
2023-02-27T22:46:47.819Z,2.99
2023-02-27T22:49:19.711Z,2.98
2023-02-27T22:51:50.984Z,2.97
2023-02-27T22:54:20.757Z,2.95
2023-02-27T22:56:51.022Z,2.94
2023-02-27T22:59:18.259Z,2.93
2023-02-27T23:01:45.721Z,2.93
2023-02-27T23:04:13.175Z,2.95
2023-02-27T23:06:41.218Z,2.96
2023-02-27T23:09:11.064Z,2.97
2023-02-27T23:11:39.379Z,2.97
2023-02-27T23:14:06.857Z,2.98
2023-02-27T23:16:34.176Z,2.99
2023-02-27T23:19:02.332Z,2.91
2023-02-27T23:21:36.862Z,2.85
2023-02-27T23:24:14.749Z,2.81
2023-02-27T23:26:47.820Z,2.72
2023-02-27T23:29:15.317Z,2.64
2023-02-27T23:31:42.676Z,2.58
2023-02-27T23:34:10.497Z,2.56
2023-02-27T23:36:39.322Z,2.55
2023-02-27T23:39:07.504Z,2.49
2023-02-27T23:41:34.980Z,2.42
2023-02-27T23:44:20.823Z,2.38
2023-02-27T23:46:48.140Z,2.34
2023-02-27T23:49:15.261Z,2.29
2023-02-27T23:51:42.777Z,2.24
2023-02-27T23:54:10.788Z,2.20
2023-02-27T23:56:38.102Z,2.15
2023-02-27T23:59:06.807Z,2.09
